Time,TemperatureF,DewpointF,PressureIn,WindDirection,WindDirectionDegrees,WindSpeedMPH,WindSpeedGustMPH,Humidity,HourlyPrecipIn,Conditions,Clouds,dailyrainin,SoftwareType,DateUTC
2013-05-14 00:00:00,71.5,58.2,29.86,ESE,104,0.9,1.3,63,0.00,,,0.00,WUHU216HW,2013-05-14 07:00:00,
2013-05-14 00:05:00,70.9,58.2,29.86,NNE,20,0.2,0.2,64,0.00,,,0.00,WUHU216HW,2013-05-14 07:05:00,
2013-05-14 00:10:00,70.6,57.3,29.86,North,0,0.0,0.0,63,0.00,,,0.00,WUHU216HW,2013-05-14 07:10:00,
2013-05-14 00:15:00,70.6,57.3,29.86,North,0,0.0,0.0,63,0.00,,,0.00,WUHU216HW,2013-05-14 07:15:00,
2013-05-14 00:20:00,70.0,57.2,29.87,ENE,68,0.8,1.1,64,0.00,,,0.00,WUHU216HW,2013-05-14 07:20:00,
2013-05-14 00:25:00,69.8,57.1,29.86,ENE,68,0.5,1.1,64,0.00,,,0.00,WUHU216HW,2013-05-14 07:25:00,
2013-05-14 00:30:00,69.8,57.1,29.86,East,90,0.2,0.2,64,0.00,,,0.00,WUHU216HW,2013-05-14 07:30:00,
2013-05-14 00:35:00,69.7,56.5,29.86,ENE,76,0.5,0.9,63,0.00,,,0.00,WUHU216HW,2013-05-14 07:35:00,
2013-05-14 00:40:00,69.3,57.0,29.86,East,90,0.3,0.4,65,0.00,,,0.00,WUHU216HW,2013-05-14 07:40:00,
2013-05-14 00:45:00,69.1,56.8,29.86,North,0,0.0,0.0,65,0.00,,,0.00,WUHU216HW,2013-05-14 07:45:00,
2013-05-14 00:50:00,69.1,56.8,29.86,SE,141,0.8,1.1,65,0.00,,,0.00,WUHU216HW,2013-05-14 07:50:00,
2013-05-14 00:55:00,68.8,56.5,29.86,NNE,27,1.0,1.6,65,0.00,,,0.00,WUHU216HW,2013-05-14 07:55:00,
2013-05-14 01:00:00,68.8,56.1,29.87,SSE,156,0.9,1.8,64,0.00,,,0.00,WUHU216HW,2013-05-14 08:00:00,
2013-05-14 01:05:00,69.1,56.0,29.86,ENE,68,0.2,0.2,63,0.00,,,0.00,WUHU216HW,2013-05-14 08:05:00,
2013-05-14 01:10:00,69.1,56.4,29.86,ENE,68,0.2,0.2,64,0.00,,,0.00,WUHU216HW,2013-05-14 08:10:00,
2013-05-14 01:15:00,68.8,55.6,29.87,North,0,0.0,0.0,63,0.00,,,0.00,WUHU216HW,2013-05-14 08:15:00,
2013-05-14 01:20:00,68.6,56.4,29.87,North,5,0.7,1.3,65,0.00,,,0.00,WUHU216HW,2013-05-14 08:20:00,
2013-05-14 01:25:00,68.6,55.9,29.87,NW,321,0.3,1.1,64,0.00,,,0.00,WUHU216HW,2013-05-14 08:25:00,
2013-05-14 01:30:00,69.1,55.5,29.87,WNW,302,1.2,2.5,62,0.00,,,0.00,WUHU216HW,2013-05-14 08:30:00,
2013-05-14 01:35:00,69.8,55.4,29.86,NW,324,0.7,1.3,60,0.00,,,0.00,WUHU216HW,2013-05-14 08:35:00,
2013-05-14 01:40:00,70.2,55.3,29.86,North,351,0.4,1.3,59,0.00,,,0.00,WUHU216HW,2013-05-14 08:40:00,
2013-05-14 01:45:00,70.2,54.7,29.87,NNW,347,0.4,1.1,58,0.00,,,0.00,WUHU216HW,2013-05-14 08:45:00,
2013-05-14 01:50:00,70.2,54.7,29.87,NNW,345,0.3,0.7,58,0.00,,,0.00,WUHU216HW,2013-05-14 08:50:00,
2013-05-14 01:55:00,69.8,54.5,29.87,NNW,338,0.4,0.4,58,0.00,,,0.00,WUHU216HW,2013-05-14 08:55:00,
2013-05-14 02:00:00,69.5,54.1,29.87,North,0,0.0,0.0,58,0.00,,,0.00,WUHU216HW,2013-05-14 09:00:00,
2013-05-14 02:05:00,69.1,54.2,29.87,North,0,0.0,0.0,59,0.00,,,0.00,WUHU216HW,2013-05-14 09:05:00,
2013-05-14 02:10:00,68.8,53.9,29.87,North,0,0.0,0.0,59,0.00,,,0.00,WUHU216HW,2013-05-14 09:10:00,
2013-05-14 02:15:00,68.2,54.3,29.87,North,0,0.0,0.0,61,0.00,,,0.00,WUHU216HW,2013-05-14 09:15:00,
2013-05-14 02:20:00,67.9,54.4,29.87,North,0,0.2,0.2,62,0.00,,,0.00,WUHU216HW,2013-05-14 09:20:00,
2013-05-14 02:25:00,67.3,54.3,29.87,North,0,0.0,0.0,63,0.00,,,0.00,WUHU216HW,2013-05-14 09:25:00,
2013-05-14 02:30:00,67.1,54.1,29.87,West,277,0.5,1.1,63,0.00,,,0.00,WUHU216HW,2013-05-14 09:30:00,
2013-05-14 02:35:00,67.0,54.4,29.87,North,353,0.8,1.6,64,0.00,,,0.00,WUHU216HW,2013-05-14 09:35:00,
2013-05-14 02:40:00,66.8,53.7,29.87,North,0,0.0,0.0,63,0.00,,,0.00,WUHU216HW,2013-05-14 09:40:00,
2013-05-14 02:45:00,66.6,54.0,29.87,SSE,161,0.9,1.1,64,0.00,,,0.00,WUHU216HW,2013-05-14 09:45:00,
2013-05-14 02:50:00,66.4,53.8,29.87,South,186,0.5,0.9,64,0.00,,,0.00,WUHU216HW,2013-05-14 09:50:00,
2013-05-14 02:55:00,65.9,53.7,29.87,North,0,0.0,0.0,65,0.00,,,0.00,WUHU216HW,2013-05-14 09:55:00,
2013-05-14 03:00:00,65.5,53.4,29.87,North,0,0.0,0.0,65,0.00,,,0.00,WUHU216HW,2013-05-14 10:00:00,
2013-05-14 03:05:00,65.5,53.4,29.87,North,0,0.0,0.0,65,0.00,,,0.00,WUHU216HW,2013-05-14 10:05:00,
2013-05-14 03:10:00,65.3,53.3,29.87,North,0,0.0,0.0,65,0.00,,,0.00,WUHU216HW,2013-05-14 10:10:00,
2013-05-14 03:15:00,65.0,53.7,29.87,East,100,0.4,0.7,67,0.00,,,0.00,WUHU216HW,2013-05-14 10:15:00,
2013-05-14 03:20:00,64.8,53.6,29.87,ESE,113,0.2,0.4,67,0.00,,,0.00,WUHU216HW,2013-05-14 10:20:00,
2013-05-14 03:25:00,64.4,54.5,29.87,North,0,0.0,0.0,70,0.00,,,0.00,WUHU216HW,2013-05-14 10:25:00,
2013-05-14 03:30:00,64.4,53.6,29.87,North,0,0.0,0.0,68,0.00,,,0.00,WUHU216HW,2013-05-14 10:30:00,
2013-05-14 03:35:00,64.4,54.1,29.87,ENE,68,0.3,0.4,69,0.00,,,0.00,WUHU216HW,2013-05-14 10:35:00,
2013-05-14 03:40:00,64.1,53.7,29.87,SE,135,0.3,0.4,69,0.00,,,0.00,WUHU216HW,2013-05-14 10:40:00,
2013-05-14 03:45:00,63.7,53.8,29.87,North,0,0.0,0.0,70,0.00,,,0.00,WUHU216HW,2013-05-14 10:45:00,
2013-05-14 03:50:00,63.4,53.5,29.88,North,0,0.0,0.0,70,0.00,,,0.00,WUHU216HW,2013-05-14 10:50:00,
2013-05-14 03:55:00,63.4,54.2,29.87,East,90,0.3,0.4,72,0.00,,,0.00,WUHU216HW,2013-05-14 10:55:00,
2013-05-14 04:00:00,63.5,54.0,29.87,SE,140,0.3,0.4,71,0.00,,,0.00,WUHU216HW,2013-05-14 11:00:00,
2013-05-14 04:05:00,63.4,53.8,29.87,North,0,0.0,0.0,71,0.00,,,0.00,WUHU216HW,2013-05-14 11:05:00,
2013-05-14 04:10:00,63.0,53.8,29.88,East,91,0.4,0.7,72,0.00,,,0.00,WUHU216HW,2013-05-14 11:10:00,
2013-05-14 04:15:00,63.0,53.8,29.88,SW,218,1.2,1.3,72,0.00,,,0.00,WUHU216HW,2013-05-14 11:15:00,
2013-05-14 04:20:00,63.0,54.2,29.88,SSE,151,0.5,1.1,73,0.00,,,0.00,WUHU216HW,2013-05-14 11:20:00,
2013-05-14 04:25:00,62.8,54.4,29.88,ESE,118,0.4,0.7,74,0.00,,,0.00,WUHU216HW,2013-05-14 11:25:00,
2013-05-14 04:30:00,62.8,54.4,29.88,SE,128,0.4,1.1,74,0.00,,,0.00,WUHU216HW,2013-05-14 11:30:00,
2013-05-14 04:35:00,62.8,54.0,29.89,SE,141,0.5,0.9,73,0.00,,,0.00,WUHU216HW,2013-05-14 11:35:00,
2013-05-14 04:40:00,62.8,54.0,29.88,SSE,159,1.1,1.8,73,0.00,,,0.00,WUHU216HW,2013-05-14 11:40:00,
2013-05-14 04:45:00,63.0,54.5,29.88,ESE,120,0.5,1.3,74,0.00,,,0.00,WUHU216HW,2013-05-14 11:45:00,
2013-05-14 04:50:00,63.0,54.5,29.88,ESE,113,0.6,1.3,74,0.00,,,0.00,WUHU216HW,2013-05-14 11:50:00,
2013-05-14 04:55:00,63.2,54.7,29.88,SE,128,0.3,0.4,74,0.00,,,0.00,WUHU216HW,2013-05-14 11:55:00,
2013-05-14 05:00:00,63.0,54.5,29.89,ESE,109,0.5,0.7,74,0.00,,,0.00,WUHU216HW,2013-05-14 12:00:00,
2013-05-14 05:05:00,63.0,54.5,29.88,ESE,120,0.4,0.4,74,0.00,,,0.00,WUHU216HW,2013-05-14 12:05:00,
2013-05-14 05:10:00,62.8,55.1,29.88,SE,125,0.6,1.1,76,0.00,,,0.00,WUHU216HW,2013-05-14 12:10:00,
2013-05-14 05:15:00,62.6,54.5,29.88,ESE,116,0.6,1.1,75,0.00,,,0.00,WUHU216HW,2013-05-14 12:15:00,
2013-05-14 05:20:00,62.5,54.4,29.88,ESE,116,0.7,1.8,75,0.00,,,0.00,WUHU216HW,2013-05-14 12:20:00,
2013-05-14 05:25:00,62.6,53.8,29.88,SE,141,0.4,1.1,73,0.00,,,0.00,WUHU216HW,2013-05-14 12:25:00,
2013-05-14 05:30:00,62.8,54.4,29.88,SE,125,0.4,1.3,74,0.00,,,0.00,WUHU216HW,2013-05-14 12:30:00,
2013-05-14 05:35:00,63.0,54.2,29.88,SE,145,0.7,1.3,73,0.00,,,0.00,WUHU216HW,2013-05-14 12:35:00,
2013-05-14 05:40:00,63.2,53.6,29.88,SSE,157,0.8,1.3,71,0.00,,,0.00,WUHU216HW,2013-05-14 12:40:00,
2013-05-14 05:45:00,63.0,53.1,29.88,SSE,151,0.8,1.3,70,0.00,,,0.00,WUHU216HW,2013-05-14 12:45:00,
2013-05-14 05:50:00,63.0,53.1,29.88,SE,134,0.3,1.1,70,0.00,,,0.00,WUHU216HW,2013-05-14 12:50:00,
2013-05-14 05:55:00,63.0,53.1,29.88,ESE,119,0.5,1.1,70,0.00,,,0.00,WUHU216HW,2013-05-14 12:55:00,
2013-05-14 06:00:00,63.0,52.7,29.88,ESE,116,0.5,1.1,69,0.00,,,0.00,WUHU216HW,2013-05-14 13:00:00,
2013-05-14 06:05:00,63.0,52.3,29.88,ESE,120,0.6,1.1,68,0.00,,,0.00,WUHU216HW,2013-05-14 13:05:00,
2013-05-14 06:10:00,63.4,52.7,29.88,SE,134,0.6,0.9,68,0.00,,,0.00,WUHU216HW,2013-05-14 13:10:00,
2013-05-14 06:15:00,63.4,52.2,29.88,SE,139,1.1,2.0,67,0.00,,,0.00,WUHU216HW,2013-05-14 13:15:00,
2013-05-14 06:20:00,64.4,52.8,29.88,SSE,152,1.3,1.8,66,0.00,,,0.00,WUHU216HW,2013-05-14 13:20:00,
2013-05-14 06:25:00,65.9,53.7,29.88,SSE,162,1.5,2.2,65,0.00,,,0.00,WUHU216HW,2013-05-14 13:25:00,
2013-05-14 06:30:00,67.3,54.7,29.89,SSE,148,1.5,2.5,64,0.00,,,0.00,WUHU216HW,2013-05-14 13:30:00,
2013-05-14 06:35:00,68.8,54.8,29.89,SSE,153,1.3,3.1,61,0.00,,,0.00,WUHU216HW,2013-05-14 13:35:00,
2013-05-14 06:40:00,69.5,55.1,29.89,SE,131,0.9,1.8,60,0.00,,,0.00,WUHU216HW,2013-05-14 13:40:00,
2013-05-14 06:45:00,70.0,54.6,29.89,SE,131,0.6,1.6,58,0.00,,,0.00,WUHU216HW,2013-05-14 13:45:00,
2013-05-14 06:50:00,69.8,54.9,29.90,SSE,151,0.6,1.1,59,0.00,,,0.00,WUHU216HW,2013-05-14 13:50:00,
2013-05-14 06:55:00,71.1,56.1,29.90,South,190,0.9,2.5,59,0.00,,,0.00,WUHU216HW,2013-05-14 13:55:00,
2013-05-14 07:00:00,74.2,58.4,29.90,SSW,211,1.3,2.2,58,0.00,,,0.00,WUHU216HW,2013-05-14 14:00:00,
2013-05-14 07:05:00,77.4,59.4,29.90,SSE,155,1.3,2.5,54,0.00,,,0.00,WUHU216HW,2013-05-14 14:05:00,
2013-05-14 07:11:00,79.2,59.5,29.90,SSE,157,1.0,2.2,51,0.00,,,0.00,WUHU216HW,2013-05-14 14:11:00,
2013-05-14 07:16:00,80.8,59.2,29.90,SSE,159,1.3,2.5,48,0.00,,,0.00,WUHU216HW,2013-05-14 14:16:00,
2013-05-14 07:21:00,81.0,58.1,29.90,SE,124,1.1,2.0,46,0.00,,,0.00,WUHU216HW,2013-05-14 14:21:00,
2013-05-14 07:26:00,81.0,57.0,29.90,SE,137,1.0,1.8,44,0.00,,,0.00,WUHU216HW,2013-05-14 14:26:00,
2013-05-14 07:31:00,81.0,57.6,29.90,SE,131,1.3,2.5,45,0.00,,,0.00,WUHU216HW,2013-05-14 14:31:00,
2013-05-14 07:36:00,81.7,58.2,29.90,SSE,150,1.3,2.5,45,0.00,,,0.00,WUHU216HW,2013-05-14 14:36:00,
2013-05-14 07:41:00,84.2,59.3,29.90,South,183,2.0,2.7,43,0.00,,,0.00,WUHU216HW,2013-05-14 14:41:00,
2013-05-14 07:46:00,83.5,58.1,29.90,South,186,1.8,2.7,42,0.00,,,0.00,WUHU216HW,2013-05-14 14:46:00,
2013-05-14 07:51:00,82.4,56.4,29.90,South,173,1.8,2.7,41,0.00,,,0.00,WUHU216HW,2013-05-14 14:51:00,
2013-05-14 07:56:00,84.2,58.1,29.91,South,189,1.7,3.4,41,0.00,,,0.00,WUHU216HW,2013-05-14 14:56:00,
2013-05-14 08:01:00,85.5,58.6,29.91,SSW,208,1.9,3.4,40,0.00,,,0.00,WUHU216HW,2013-05-14 15:01:00,
2013-05-14 08:06:00,87.1,60.0,29.91,SSW,206,0.7,1.6,40,0.00,,,0.00,WUHU216HW,2013-05-14 15:06:00,
2013-05-14 08:11:00,87.8,59.9,29.91,SSW,212,0.7,1.3,39,0.00,,,0.00,WUHU216HW,2013-05-14 15:11:00,
2013-05-14 08:16:00,87.8,59.0,29.91,WNW,283,0.6,1.1,38,0.00,,,0.00,WUHU216HW,2013-05-14 15:16:00,
2013-05-14 08:21:00,86.9,59.0,29.91,SSE,164,1.0,2.0,39,0.00,,,0.00,WUHU216HW,2013-05-14 15:21:00,
2013-05-14 08:26:00,84.6,57.8,29.91,SW,214,1.1,1.8,40,0.00,,,0.00,WUHU216HW,2013-05-14 15:26:00,
2013-05-14 08:31:00,83.5,57.4,29.92,SSW,207,0.6,1.1,41,0.00,,,0.00,WUHU216HW,2013-05-14 15:31:00,
2013-05-14 08:36:00,82.8,56.7,29.92,SW,234,0.6,0.9,41,0.00,,,0.00,WUHU216HW,2013-05-14 15:36:00,
2013-05-14 08:41:00,82.1,56.1,29.92,ESE,114,0.8,1.1,41,0.00,,,0.00,WUHU216HW,2013-05-14 15:41:00,
2013-05-14 08:46:00,81.5,56.3,29.92,SSE,151,1.4,2.5,42,0.00,,,0.00,WUHU216HW,2013-05-14 15:46:00,
2013-05-14 08:51:00,81.5,56.3,29.92,SSW,194,1.1,2.0,42,0.00,,,0.00,WUHU216HW,2013-05-14 15:51:00,
2013-05-14 08:56:00,81.7,56.3,29.92,SW,215,1.1,2.2,42,0.00,,,0.00,WUHU216HW,2013-05-14 15:56:00,
2013-05-14 09:01:00,81.7,56.3,29.92,SW,225,1.0,2.2,42,0.00,,,0.00,WUHU216HW,2013-05-14 16:01:00,
2013-05-14 09:06:00,81.4,56.7,29.92,SW,232,0.9,2.2,43,0.00,,,0.00,WUHU216HW,2013-05-14 16:06:00,
2013-05-14 09:11:00,81.7,57.0,29.92,SSE,147,1.9,2.9,43,0.00,,,0.00,WUHU216HW,2013-05-14 16:11:00,
2013-05-14 09:16:00,82.1,57.3,29.92,South,180,1.8,2.9,43,0.00,,,0.00,WUHU216HW,2013-05-14 16:16:00,
2013-05-14 09:21:00,80.8,55.5,29.92,SSE,150,1.4,2.5,42,0.00,,,0.00,WUHU216HW,2013-05-14 16:21:00,
2013-05-14 09:26:00,80.6,55.5,29.92,North,359,0.9,1.8,42,0.00,,,0.00,WUHU216HW,2013-05-14 16:26:00,
2013-05-14 09:31:00,81.5,56.8,29.92,SE,135,1.7,2.5,43,0.00,,,0.00,WUHU216HW,2013-05-14 16:31:00,
2013-05-14 09:36:00,81.5,55.6,29.92,West,280,1.1,1.8,41,0.00,,,0.00,WUHU216HW,2013-05-14 16:36:00,
2013-05-14 09:41:00,81.4,56.1,29.92,NNE,17,1.0,2.2,42,0.00,,,0.00,WUHU216HW,2013-05-14 16:41:00,
2013-05-14 09:46:00,81.7,55.8,29.92,NNW,331,1.3,2.5,41,0.00,,,0.00,WUHU216HW,2013-05-14 16:46:00,
2013-05-14 09:51:00,81.0,54.6,29.92,NW,314,0.9,3.8,40,0.00,,,0.00,WUHU216HW,2013-05-14 16:51:00,
2013-05-14 09:56:00,81.0,54.6,29.92,NW,326,1.8,3.4,40,0.00,,,0.00,WUHU216HW,2013-05-14 16:56:00,
2013-05-14 10:01:00,80.5,53.3,29.93,North,10,1.6,3.1,39,0.00,,,0.00,WUHU216HW,2013-05-14 17:01:00,
2013-05-14 10:06:00,80.5,54.0,29.93,NW,316,1.4,4.9,40,0.00,,,0.00,WUHU216HW,2013-05-14 17:06:00,
2013-05-14 10:11:00,80.5,53.3,29.93,NNE,21,1.5,4.7,39,0.00,,,0.00,WUHU216HW,2013-05-14 17:11:00,
2013-05-14 10:16:00,80.5,54.6,29.93,NNW,345,2.0,3.4,41,0.00,,,0.00,WUHU216HW,2013-05-14 17:16:00,
2013-05-14 10:21:00,81.0,55.1,29.92,WNW,287,2.5,4.5,41,0.00,,,0.00,WUHU216HW,2013-05-14 17:21:00,
2013-05-14 10:26:00,81.0,54.6,29.93,North,1,1.7,4.0,40,0.00,,,0.00,WUHU216HW,2013-05-14 17:26:00,
2013-05-14 10:31:00,80.6,54.8,29.92,NW,315,1.4,3.4,41,0.00,,,0.00,WUHU216HW,2013-05-14 17:31:00,
2013-05-14 10:36:00,80.6,54.8,29.92,North,2,1.3,3.4,41,0.00,,,0.00,WUHU216HW,2013-05-14 17:36:00,
2013-05-14 10:41:00,81.0,54.6,29.92,North,353,1.5,2.5,40,0.00,,,0.00,WUHU216HW,2013-05-14 17:41:00,
2013-05-14 10:46:00,81.2,53.9,29.92,NNW,334,1.8,4.7,39,0.00,,,0.00,WUHU216HW,2013-05-14 17:46:00,
2013-05-14 10:51:00,81.4,54.8,29.92,NNW,343,1.0,2.9,40,0.00,,,0.00,WUHU216HW,2013-05-14 17:51:00,
2013-05-14 10:56:00,82.1,54.7,29.92,North,0,2.1,4.9,39,0.00,,,0.00,WUHU216HW,2013-05-14 17:56:00,
2013-05-14 11:01:00,83.0,54.7,29.92,SE,145,0.9,1.8,38,0.00,,,0.00,WUHU216HW,2013-05-14 18:01:00,
2013-05-14 11:06:00,83.5,53.7,29.92,West,261,2.0,4.0,36,0.00,,,0.00,WUHU216HW,2013-05-14 18:06:00,
2013-05-14 11:11:00,84.4,52.8,29.92,SE,126,2.4,4.0,34,0.00,,,0.00,WUHU216HW,2013-05-14 18:11:00,
2013-05-14 11:16:00,84.4,52.0,29.92,NE,46,1.3,2.7,33,0.00,,,0.00,WUHU216HW,2013-05-14 18:16:00,
2013-05-14 11:21:00,84.8,53.2,29.92,WNW,289,2.0,3.4,34,0.00,,,0.00,WUHU216HW,2013-05-14 18:21:00,
2013-05-14 11:26:00,85.7,53.2,29.92,NW,316,1.6,2.5,33,0.00,,,0.00,WUHU216HW,2013-05-14 18:26:00,
2013-05-14 11:31:00,86.6,53.2,29.92,West,261,2.0,3.4,32,0.00,,,0.00,WUHU216HW,2013-05-14 18:31:00,
2013-05-14 11:36:00,87.7,54.0,29.92,WNW,291,1.7,3.8,32,0.00,,,0.00,WUHU216HW,2013-05-14 18:36:00,
2013-05-14 11:41:00,87.3,52.9,29.91,NW,310,1.5,3.4,31,0.00,,,0.00,WUHU216HW,2013-05-14 18:41:00,
2013-05-14 11:46:00,86.4,50.3,29.92,North,352,1.6,4.9,29,0.00,,,0.00,WUHU216HW,2013-05-14 18:46:00,
2013-05-14 11:51:00,86.0,50.0,29.92,NW,325,2.0,3.6,29,0.00,,,0.00,WUHU216HW,2013-05-14 18:51:00,
2013-05-14 11:56:00,86.2,49.2,29.91,NNW,330,1.4,3.4,28,0.00,,,0.00,WUHU216HW,2013-05-14 18:56:00,
2013-05-14 12:01:00,86.8,52.5,29.91,WNW,288,2.0,4.3,31,0.00,,,0.00,WUHU216HW,2013-05-14 19:01:00,
2013-05-14 12:06:00,87.1,52.0,29.91,NW,308,1.8,2.9,30,0.00,,,0.00,WUHU216HW,2013-05-14 19:06:00,
2013-05-14 12:11:00,87.5,53.9,29.91,SW,230,2.0,4.0,32,0.00,,,0.00,WUHU216HW,2013-05-14 19:11:00,
2013-05-14 12:16:00,87.8,53.4,29.90,SW,215,2.5,4.7,31,0.00,,,0.00,WUHU216HW,2013-05-14 19:16:00,
2013-05-14 12:21:00,88.2,55.3,29.91,SSW,205,2.8,5.1,33,0.00,,,0.00,WUHU216HW,2013-05-14 19:21:00,
2013-05-14 12:26:00,88.9,53.6,29.90,WSW,237,2.2,3.4,30,0.00,,,0.00,WUHU216HW,2013-05-14 19:26:00,
2013-05-14 12:31:00,89.3,51.7,29.90,WSW,255,1.9,3.4,28,0.00,,,0.00,WUHU216HW,2013-05-14 19:31:00,
2013-05-14 12:36:00,89.3,52.7,29.90,SSW,207,2.2,3.8,29,0.00,,,0.00,WUHU216HW,2013-05-14 19:36:00,
2013-05-14 12:41:00,89.3,52.7,29.90,WSW,246,2.3,3.8,29,0.00,,,0.00,WUHU216HW,2013-05-14 19:41:00,
2013-05-14 12:46:00,89.8,53.3,29.90,WNW,286,2.8,6.0,29,0.00,,,0.00,WUHU216HW,2013-05-14 19:46:00,
2013-05-14 12:51:00,89.8,53.3,29.90,WNW,290,3.2,5.6,29,0.00,,,0.00,WUHU216HW,2013-05-14 19:51:00,
2013-05-14 12:56:00,90.2,55.4,29.90,WNW,287,3.3,6.5,31,0.00,,,0.00,WUHU216HW,2013-05-14 19:56:00,
2013-05-14 13:02:00,90.2,53.6,29.90,WNW,289,3.0,5.8,29,0.00,,,0.00,WUHU216HW,2013-05-14 20:02:00,
2013-05-14 13:07:00,89.6,49.9,29.90,NW,308,2.2,6.7,26,0.00,,,0.00,WUHU216HW,2013-05-14 20:07:00,
2013-05-14 13:12:00,89.5,51.8,29.90,WNW,283,1.9,4.3,28,0.00,,,0.00,WUHU216HW,2013-05-14 20:12:00,
2013-05-14 13:17:00,89.6,52.0,29.89,WSW,248,1.9,4.3,28,0.00,,,0.00,WUHU216HW,2013-05-14 20:17:00,
2013-05-14 13:22:00,91.1,52.2,29.89,NW,306,1.9,4.5,27,0.00,,,0.00,WUHU216HW,2013-05-14 20:22:00,
2013-05-14 13:27:00,90.7,49.7,29.89,NW,305,2.3,4.5,25,0.00,,,0.00,WUHU216HW,2013-05-14 20:27:00,
2013-05-14 13:32:00,90.2,51.4,29.88,West,265,2.2,6.0,27,0.00,,,0.00,WUHU216HW,2013-05-14 20:32:00,
2013-05-14 13:37:00,89.8,49.0,29.88,NW,326,2.2,4.5,25,0.00,,,0.00,WUHU216HW,2013-05-14 20:37:00,
2013-05-14 13:42:00,89.3,48.5,29.88,NNE,14,2.3,4.7,25,0.00,,,0.00,WUHU216HW,2013-05-14 20:42:00,
2013-05-14 13:47:00,88.9,49.2,29.88,WNW,298,1.7,3.8,26,0.00,,,0.00,WUHU216HW,2013-05-14 20:47:00,
2013-05-14 13:52:00,89.3,48.5,29.88,WSW,258,1.2,2.5,25,0.00,,,0.00,WUHU216HW,2013-05-14 20:52:00,
2013-05-14 13:57:00,89.5,48.6,29.88,NW,309,1.6,3.8,25,0.00,,,0.00,WUHU216HW,2013-05-14 20:57:00,
2013-05-14 14:02:00,89.8,47.9,29.87,WNW,300,1.6,3.1,24,0.00,,,0.00,WUHU216HW,2013-05-14 21:02:00,
2013-05-14 14:07:00,90.4,49.4,29.87,West,278,2.7,4.3,25,0.00,,,0.00,WUHU216HW,2013-05-14 21:07:00,
2013-05-14 14:12:00,90.7,47.5,29.87,WNW,289,1.8,3.4,23,0.00,,,0.00,WUHU216HW,2013-05-14 21:12:00,
2013-05-14 14:17:00,91.1,50.1,29.87,WNW,283,2.0,4.3,25,0.00,,,0.00,WUHU216HW,2013-05-14 21:17:00,
2013-05-14 14:22:00,92.2,52.0,29.87,South,189,3.4,5.1,26,0.00,,,0.00,WUHU216HW,2013-05-14 21:22:00,
2013-05-14 14:27:00,92.5,50.0,29.87,South,170,2.9,5.1,24,0.00,,,0.00,WUHU216HW,2013-05-14 21:27:00,
2013-05-14 14:32:00,92.5,51.2,29.86,SE,134,1.7,2.9,25,0.00,,,0.00,WUHU216HW,2013-05-14 21:32:00,
2013-05-14 14:37:00,92.3,46.6,29.86,NNW,338,1.1,2.5,21,0.00,,,0.00,WUHU216HW,2013-05-14 21:37:00,
2013-05-14 14:42:00,92.2,50.9,29.86,West,268,2.7,4.0,25,0.00,,,0.00,WUHU216HW,2013-05-14 21:42:00,
2013-05-14 14:47:00,93.1,51.6,29.86,West,275,2.3,4.3,25,0.00,,,0.00,WUHU216HW,2013-05-14 21:47:00,
2013-05-14 14:52:00,93.6,50.9,29.86,West,270,3.6,6.0,24,0.00,,,0.00,WUHU216HW,2013-05-14 21:52:00,
2013-05-14 14:57:00,93.1,50.5,29.85,WNW,287,3.2,5.4,24,0.00,,,0.00,WUHU216HW,2013-05-14 21:57:00,
2013-05-14 15:02:00,92.9,50.4,29.86,WNW,284,5.5,8.3,24,0.00,,,0.00,WUHU216HW,2013-05-14 22:02:00,
2013-05-14 15:07:00,93.1,50.5,29.86,West,281,4.2,6.7,24,0.00,,,0.00,WUHU216HW,2013-05-14 22:07:00,
2013-05-14 15:12:00,93.2,49.6,29.86,WNW,292,4.8,6.9,23,0.00,,,0.00,WUHU216HW,2013-05-14 22:12:00,
2013-05-14 15:17:00,92.3,48.9,29.85,NW,316,4.4,7.4,23,0.00,,,0.00,WUHU216HW,2013-05-14 22:17:00,
2013-05-14 15:22:00,92.2,49.8,29.85,WNW,293,3.9,6.0,24,0.00,,,0.00,WUHU216HW,2013-05-14 22:22:00,
2013-05-14 15:27:00,92.3,51.0,29.85,WNW,286,2.4,5.1,25,0.00,,,0.00,WUHU216HW,2013-05-14 22:27:00,
2013-05-14 15:32:00,93.2,51.8,29.85,South,171,3.1,4.7,25,0.00,,,0.00,WUHU216HW,2013-05-14 22:32:00,
2013-05-14 15:37:00,93.6,49.9,29.84,South,175,2.5,4.0,23,0.00,,,0.00,WUHU216HW,2013-05-14 22:37:00,
2013-05-14 15:42:00,93.6,50.9,29.84,SW,235,2.1,4.9,24,0.00,,,0.00,WUHU216HW,2013-05-14 22:42:00,
2013-05-14 15:47:00,93.6,50.9,29.84,WNW,284,3.4,5.4,24,0.00,,,0.00,WUHU216HW,2013-05-14 22:47:00,
2013-05-14 15:52:00,93.4,47.5,29.84,WSW,242,2.9,5.1,21,0.00,,,0.00,WUHU216HW,2013-05-14 22:52:00,
2013-05-14 15:57:00,92.9,50.4,29.84,West,275,2.3,4.0,24,0.00,,,0.00,WUHU216HW,2013-05-14 22:57:00,
2013-05-14 16:02:00,92.7,50.2,29.84,West,272,2.4,4.0,24,0.00,,,0.00,WUHU216HW,2013-05-14 23:02:00,
2013-05-14 16:07:00,92.5,49.0,29.84,South,180,1.6,4.0,23,0.00,,,0.00,WUHU216HW,2013-05-14 23:07:00,
2013-05-14 16:12:00,92.2,46.5,29.84,SSW,193,2.1,4.3,21,0.00,,,0.00,WUHU216HW,2013-05-14 23:12:00,
2013-05-14 16:17:00,92.2,48.7,29.84,West,277,2.2,4.0,23,0.00,,,0.00,WUHU216HW,2013-05-14 23:17:00,
2013-05-14 16:22:00,92.0,47.4,29.83,SW,214,1.9,3.8,22,0.00,,,0.00,WUHU216HW,2013-05-14 23:22:00,
2013-05-14 16:27:00,92.2,43.7,29.83,NW,304,3.3,6.5,19,0.00,,,0.00,WUHU216HW,2013-05-14 23:27:00,
2013-05-14 16:32:00,91.8,47.4,29.83,WNW,303,2.1,4.9,22,0.00,,,0.00,WUHU216HW,2013-05-14 23:32:00,
2013-05-14 16:37:00,92.3,48.9,29.83,WSW,256,1.4,4.0,23,0.00,,,0.00,WUHU216HW,2013-05-14 23:37:00,
2013-05-14 16:42:00,92.9,49.2,29.83,WSW,247,1.7,4.0,23,0.00,,,0.00,WUHU216HW,2013-05-14 23:42:00,
2013-05-14 16:47:00,93.2,50.7,29.83,WNW,289,2.6,4.0,24,0.00,,,0.00,WUHU216HW,2013-05-14 23:47:00,
2013-05-14 16:52:00,92.9,49.2,29.83,West,276,3.2,5.4,23,0.00,,,0.00,WUHU216HW,2013-05-14 23:52:00,
2013-05-14 16:57:00,92.2,48.7,29.83,SW,233,1.7,3.4,23,0.00,,,0.00,WUHU216HW,2013-05-14 23:57:00,
2013-05-14 17:02:00,91.3,46.9,29.83,SW,225,2.4,4.0,22,0.00,,,0.00,WUHU216HW,2013-05-15 00:02:00,
2013-05-14 17:07:00,91.8,47.4,29.83,WSW,245,2.7,4.5,22,0.00,,,0.00,WUHU216HW,2013-05-15 00:07:00,
2013-05-14 17:12:00,92.3,48.9,29.83,WSW,254,1.8,3.1,23,0.00,,,0.00,WUHU216HW,2013-05-15 00:12:00,
2013-05-14 17:17:00,92.9,49.2,29.83,West,264,2.5,7.2,23,0.00,,,0.00,WUHU216HW,2013-05-15 00:17:00,
2013-05-14 17:22:00,92.7,46.9,29.83,West,275,3.4,7.4,21,0.00,,,0.00,WUHU216HW,2013-05-15 00:22:00,
2013-05-14 17:27:00,92.7,45.8,29.83,West,277,5.0,7.8,20,0.00,,,0.00,WUHU216HW,2013-05-15 00:27:00,
2013-05-14 17:32:00,92.3,43.8,29.83,WNW,287,5.0,6.9,19,0.00,,,0.00,WUHU216HW,2013-05-15 00:32:00,
2013-05-14 17:37:00,92.2,43.7,29.83,WNW,288,4.1,6.9,19,0.00,,,0.00,WUHU216HW,2013-05-15 00:37:00,
2013-05-14 17:42:00,91.6,41.5,29.83,WNW,297,5.0,8.3,18,0.00,,,0.00,WUHU216HW,2013-05-15 00:42:00,
2013-05-14 17:47:00,90.4,42.2,29.83,NW,316,4.6,6.9,19,0.00,,,0.00,WUHU216HW,2013-05-15 00:47:00,
2013-05-14 17:52:00,89.6,41.7,29.83,NW,315,5.0,7.4,19,0.00,,,0.00,WUHU216HW,2013-05-15 00:52:00,
2013-05-14 17:57:00,89.5,41.5,29.83,NW,306,5.1,6.7,19,0.00,,,0.00,WUHU216HW,2013-05-15 00:57:00,
2013-05-14 18:02:00,89.3,44.2,29.83,NW,308,5.3,6.7,21,0.00,,,0.00,WUHU216HW,2013-05-15 01:02:00,
2013-05-14 18:07:00,89.1,46.2,29.83,NW,314,4.4,8.5,23,0.00,,,0.00,WUHU216HW,2013-05-15 01:07:00,
2013-05-14 18:12:00,88.6,47.9,29.83,NW,313,6.4,8.5,25,0.00,,,0.00,WUHU216HW,2013-05-15 01:12:00,
2013-05-14 18:17:00,88.4,51.0,29.84,NW,321,4.1,7.2,28,0.00,,,0.00,WUHU216HW,2013-05-15 01:17:00,
2013-05-14 18:22:00,88.2,48.6,29.83,NW,313,4.7,9.4,26,0.00,,,0.00,WUHU216HW,2013-05-15 01:22:00,
2013-05-14 18:27:00,88.2,48.6,29.84,NW,317,5.5,7.2,26,0.00,,,0.00,WUHU216HW,2013-05-15 01:27:00,
2013-05-14 18:32:00,87.8,48.3,29.84,NW,305,5.8,7.4,26,0.00,,,0.00,WUHU216HW,2013-05-15 01:32:00,
2013-05-14 18:37:00,87.3,47.9,29.84,NW,319,5.3,7.8,26,0.00,,,0.00,WUHU216HW,2013-05-15 01:37:00,
2013-05-14 18:42:00,86.9,47.5,29.84,NW,307,6.0,8.9,26,0.00,,,0.00,WUHU216HW,2013-05-15 01:42:00,
2013-05-14 18:47:00,86.6,47.3,29.84,NW,312,5.4,7.6,26,0.00,,,0.00,WUHU216HW,2013-05-15 01:47:00,
2013-05-14 18:52:00,86.4,49.2,29.85,NW,311,5.7,7.6,28,0.00,,,0.00,WUHU216HW,2013-05-15 01:52:00,
2013-05-14 18:57:00,86.2,50.2,29.85,WNW,301,4.4,6.3,29,0.00,,,0.00,WUHU216HW,2013-05-15 01:57:00,
2013-05-14 19:02:00,86.0,51.1,29.85,NW,308,4.3,6.3,30,0.00,,,0.00,WUHU216HW,2013-05-15 02:02:00,
2013-05-14 19:07:00,85.9,50.9,29.85,NW,306,4.6,6.9,30,0.00,,,0.00,WUHU216HW,2013-05-15 02:07:00,
2013-05-14 19:12:00,85.7,50.8,29.84,NW,312,3.7,5.4,30,0.00,,,0.00,WUHU216HW,2013-05-15 02:12:00,
2013-05-14 19:17:00,85.3,52.8,29.84,NW,310,5.4,8.1,33,0.00,,,0.00,WUHU216HW,2013-05-15 02:17:00,
2013-05-14 19:22:00,85.0,52.6,29.84,NW,311,4.7,6.0,33,0.00,,,0.00,WUHU216HW,2013-05-15 02:22:00,
2013-05-14 19:27:00,84.6,53.0,29.85,NW,316,3.0,4.5,34,0.00,,,0.00,WUHU216HW,2013-05-15 02:27:00,
2013-05-14 19:32:00,84.1,52.5,29.85,NW,324,1.2,2.2,34,0.00,,,0.00,WUHU216HW,2013-05-15 02:32:00,
2013-05-14 19:37:00,83.5,52.8,29.85,NNW,334,0.9,2.5,35,0.00,,,0.00,WUHU216HW,2013-05-15 02:37:00,
2013-05-14 19:42:00,83.2,51.7,29.85,NW,317,1.9,3.4,34,0.00,,,0.00,WUHU216HW,2013-05-15 02:42:00,
2013-05-14 19:47:00,82.6,51.2,29.85,NW,317,1.8,2.9,34,0.00,,,0.00,WUHU216HW,2013-05-15 02:47:00,
2013-05-14 19:52:00,82.3,51.0,29.86,NW,313,1.7,2.0,34,0.00,,,0.00,WUHU216HW,2013-05-15 02:52:00,
2013-05-14 19:57:00,81.5,51.1,29.86,NW,313,1.4,2.5,35,0.00,,,0.00,WUHU216HW,2013-05-15 02:57:00,
2013-05-14 20:02:00,80.8,50.5,29.86,NNW,339,0.5,1.1,35,0.00,,,0.00,WUHU216HW,2013-05-15 03:02:00,
2013-05-14 20:07:00,80.5,50.1,29.86,North,8,0.7,1.1,35,0.00,,,0.00,WUHU216HW,2013-05-15 03:07:00,
2013-05-14 20:12:00,79.6,50.9,29.85,NNE,23,0.6,1.1,37,0.00,,,0.00,WUHU216HW,2013-05-15 03:12:00,
2013-05-14 20:17:00,79.0,50.4,29.85,North,0,0.0,0.0,37,0.00,,,0.00,WUHU216HW,2013-05-15 03:17:00,
2013-05-14 20:22:00,78.7,50.9,29.85,North,0,0.0,0.0,38,0.00,,,0.00,WUHU216HW,2013-05-15 03:22:00,
2013-05-14 20:27:00,78.3,51.3,29.85,North,0,0.0,0.0,39,0.00,,,0.00,WUHU216HW,2013-05-15 03:27:00,
2013-05-14 20:32:00,77.8,51.6,29.86,North,0,0.0,0.0,40,0.00,,,0.00,WUHU216HW,2013-05-15 03:32:00,
2013-05-14 20:37:00,77.0,52.2,29.86,North,0,0.0,0.0,42,0.00,,,0.00,WUHU216HW,2013-05-15 03:37:00,
2013-05-14 20:42:00,76.1,53.2,29.86,North,0,0.0,0.0,45,0.00,,,0.00,WUHU216HW,2013-05-15 03:42:00,
2013-05-14 20:47:00,75.4,52.6,29.86,North,0,0.0,0.0,45,0.00,,,0.00,WUHU216HW,2013-05-15 03:47:00,
2013-05-14 20:52:00,75.2,52.4,29.86,North,0,0.0,0.0,45,0.00,,,0.00,WUHU216HW,2013-05-15 03:52:00,
2013-05-14 20:57:00,74.5,51.7,29.86,North,0,0.0,0.0,45,0.00,,,0.00,WUHU216HW,2013-05-15 03:57:00,
2013-05-14 21:02:00,74.2,51.9,29.87,North,0,0.0,0.0,46,0.00,,,0.00,WUHU216HW,2013-05-15 04:02:00,
2013-05-14 21:07:00,73.6,52.0,29.87,North,0,0.0,0.0,47,0.00,,,0.00,WUHU216HW,2013-05-15 04:07:00,
2013-05-14 21:12:00,73.1,52.8,29.87,North,0,0.0,0.0,49,0.00,,,0.00,WUHU216HW,2013-05-15 04:12:00,
2013-05-14 21:17:00,72.5,52.2,29.87,NNE,23,0.2,0.2,49,0.00,,,0.00,WUHU216HW,2013-05-15 04:17:00,
2013-05-14 21:22:00,72.4,52.7,29.88,North,0,0.0,0.0,50,0.00,,,0.00,WUHU216HW,2013-05-15 04:22:00,
2013-05-14 21:27:00,72.4,52.1,29.87,North,0,0.0,0.0,49,0.00,,,0.00,WUHU216HW,2013-05-15 04:27:00,
2013-05-14 21:32:00,72.5,52.2,29.88,North,0,0.0,0.0,49,0.00,,,0.00,WUHU216HW,2013-05-15 04:32:00,
2013-05-14 21:37:00,72.5,52.8,29.88,North,352,0.4,1.1,50,0.00,,,0.00,WUHU216HW,2013-05-15 04:37:00,
2013-05-14 21:42:00,73.1,52.8,29.88,North,0,0.4,0.4,49,0.00,,,0.00,WUHU216HW,2013-05-15 04:42:00,
2013-05-14 21:47:00,73.3,52.9,29.88,NNW,338,0.3,0.4,49,0.00,,,0.00,WUHU216HW,2013-05-15 04:47:00,
2013-05-14 21:53:00,73.3,52.3,29.88,NNW,338,0.2,0.2,48,0.00,,,0.00,WUHU216HW,2013-05-15 04:53:00,
2013-05-14 21:58:00,73.4,53.6,29.88,NNW,338,0.2,0.4,50,0.00,,,0.00,WUHU216HW,2013-05-15 04:58:00,
2013-05-14 22:03:00,73.4,54.2,29.88,NNW,338,0.4,0.4,51,0.00,,,0.00,WUHU216HW,2013-05-15 05:03:00,
2013-05-14 22:08:00,73.6,53.2,29.88,NNW,338,0.2,0.2,49,0.00,,,0.00,WUHU216HW,2013-05-15 05:08:00,
2013-05-14 22:13:00,73.4,53.0,29.88,NNW,338,0.3,0.4,49,0.00,,,0.00,WUHU216HW,2013-05-15 05:13:00,
2013-05-14 22:18:00,73.4,53.6,29.88,NW,315,0.3,0.4,50,0.00,,,0.00,WUHU216HW,2013-05-15 05:18:00,
2013-05-14 22:23:00,73.4,54.2,29.89,North,0,0.0,0.0,51,0.00,,,0.00,WUHU216HW,2013-05-15 05:23:00,
2013-05-14 22:28:00,73.3,54.0,29.89,North,0,0.0,0.0,51,0.00,,,0.00,WUHU216HW,2013-05-15 05:28:00,
2013-05-14 22:33:00,73.3,54.5,29.89,West,266,0.5,0.9,52,0.00,,,0.00,WUHU216HW,2013-05-15 05:33:00,
2013-05-14 22:38:00,73.4,54.2,29.89,WNW,285,0.8,1.6,51,0.00,,,0.00,WUHU216HW,2013-05-15 05:38:00,
2013-05-14 22:43:00,73.3,54.0,29.89,West,277,1.0,1.6,51,0.00,,,0.00,WUHU216HW,2013-05-15 05:43:00,
2013-05-14 22:48:00,73.1,53.8,29.89,North,0,0.0,0.0,51,0.00,,,0.00,WUHU216HW,2013-05-15 05:48:00,
2013-05-14 22:53:00,72.5,53.4,29.90,SSW,211,0.5,0.9,51,0.00,,,0.00,WUHU216HW,2013-05-15 05:53:00,
2013-05-14 22:58:00,71.6,54.0,29.89,South,179,1.2,1.8,54,0.00,,,0.00,WUHU216HW,2013-05-15 05:58:00,
2013-05-14 23:03:00,70.9,53.9,29.90,SSW,212,0.9,1.8,55,0.00,,,0.00,WUHU216HW,2013-05-15 06:03:00,
2013-05-14 23:08:00,70.4,53.4,29.90,ESE,113,0.5,0.9,55,0.00,,,0.00,WUHU216HW,2013-05-15 06:08:00,
2013-05-14 23:13:00,70.2,53.3,29.90,ESE,107,0.8,1.3,55,0.00,,,0.00,WUHU216HW,2013-05-15 06:13:00,
2013-05-14 23:18:00,69.8,52.9,29.90,ESE,103,0.3,0.4,55,0.00,,,0.00,WUHU216HW,2013-05-15 06:18:00,
2013-05-14 23:23:00,69.5,52.6,29.90,North,0,0.0,0.0,55,0.00,,,0.00,WUHU216HW,2013-05-15 06:23:00,
2013-05-14 23:28:00,69.5,52.6,29.90,North,0,0.0,0.0,55,0.00,,,0.00,WUHU216HW,2013-05-15 06:28:00,
2013-05-14 23:33:00,68.8,53.9,29.91,NE,53,0.4,0.7,59,0.00,,,0.00,WUHU216HW,2013-05-15 06:33:00,
2013-05-14 23:38:00,68.0,52.7,29.90,ESE,105,0.3,0.7,58,0.00,,,0.00,WUHU216HW,2013-05-15 06:38:00,
2013-05-14 23:43:00,67.7,52.4,29.90,ENE,68,0.4,0.4,58,0.00,,,0.00,WUHU216HW,2013-05-15 06:43:00,
2013-05-14 23:48:00,67.7,52.8,29.91,North,0,0.0,0.0,59,0.00,,,0.00,WUHU216HW,2013-05-15 06:48:00,
2013-05-14 23:53:00,67.7,52.8,29.91,ESE,113,0.4,0.4,59,0.00,,,0.00,WUHU216HW,2013-05-15 06:53:00,
2013-05-14 23:58:00,67.9,53.0,29.91,SW,235,0.5,1.1,59,0.00,,,0.00,WUHU216HW,2013-05-15 06:58:00,